Terminal Aerodrome Forecast
Issued by NWS Wilmington, OH

Current Version | Previous Version | Graphics & Text | Print | Product List | Glossary On
Versions: 1 2 3 4 5 6 7 8 9 10 11 12 13 14 15 16 17 18
000
FTUS41 KILN 141600 AAB
TAFCMH
TAF AMD
KCMH 141642Z 1417/1512 23018G27KT P6SM -SHRA SCT015 OVC025
     FM150000 29014G20KT P6SM -RA OVC015
     FM150600 33016G28KT 5SM -RA BR OVC008
     FM151000 34018G25KT 3SM -SN OVC006=

USA.gov is the U.S. government's official web portal to all federal, state and local government web resources and services.